Time;durP1;ratioP1;P1;durP2;ratioP2;P2;SDS_P1;SDS_P2;PMS_P1;PMS_P2;Temp;Humidity;BMP_temperature;BMP_pressure;BME280_temperature;BME280_humidity;BME280_pressure;Samples;Min_cycle;Max_cycle;Signal;HPM_P1;HPM_P2
2022/12/07 00:01:19;;;;;;;5.65;2.92;;;4.60;99.90;;;;;;5016960;28;20085;-77
2022/12/07 00:03:46;;;;;;;5.47;2.90;;;4.60;99.90;;;;;;5012753;28;20398;-79
2022/12/07 00:06:15;;;;;;;8.45;2.95;;;4.60;99.90;;;;;;5006193;28;20042;-79
2022/12/07 00:08:41;;;;;;;8.77;2.85;;;4.60;99.90;;;;;;5008355;28;20167;-78
2022/12/07 00:11:10;;;;;;;9.75;2.75;;;4.60;99.90;;;;;;5007838;28;20069;-80
2022/12/07 00:13:36;;;;;;;7.40;2.53;;;4.60;99.90;;;;;;5006127;28;20123;-76
2022/12/07 00:16:04;;;;;;;3.92;2.00;;;4.60;99.90;;;;;;5013791;28;20050;-77
2022/12/07 00:18:30;;;;;;;4.78;2.60;;;4.60;99.90;;;;;;5011584;28;20128;-78
2022/12/07 00:21:26;;;;;;;4.38;2.42;;;4.70;99.90;;;;;;5007689;28;20044;-77
2022/12/07 00:23:53;;;;;;;4.03;2.10;;;4.70;99.90;;;;;;5003793;28;20368;-77
2022/12/07 00:26:24;;;;;;;4.95;2.53;;;4.70;99.90;;;;;;5006210;28;20045;-78
2022/12/07 00:28:52;;;;;;;4.78;2.30;;;4.80;99.90;;;;;;5010727;28;20053;-77
2022/12/07 00:31:19;;;;;;;6.30;2.03;;;4.90;99.90;;;;;;5005429;28;20068;-78
2022/12/07 00:33:46;;;;;;;6.20;2.70;;;4.80;99.90;;;;;;5007912;28;20115;-77
2022/12/07 00:36:15;;;;;;;7.28;2.30;;;4.80;99.90;;;;;;5013731;28;20043;-77
2022/12/07 00:38:41;;;;;;;4.65;2.85;;;4.80;99.90;;;;;;5015674;28;20057;-77
2022/12/07 00:41:21;;;;;;;3.65;2.00;;;4.80;99.90;;;;;;5016712;28;20059;-77
2022/12/07 00:43:48;;;;;;;10.02;2.38;;;4.80;99.90;;;;;;5005182;28;20135;-77
2022/12/07 00:46:15;;;;;;;3.63;1.63;;;5.00;99.90;;;;;;5017150;28;20065;-78
2022/12/07 00:48:41;;;;;;;4.60;1.85;;;4.90;99.90;;;;;;5014226;28;20419;-77
2022/12/07 00:51:08;;;;;;;4.95;2.20;;;5.50;99.90;;;;;;5029250;28;20071;-77
2022/12/07 00:53:35;;;;;;;4.28;1.60;;;4.90;99.90;;;;;;5015094;28;21020;-77
2022/12/07 00:56:16;;;;;;;3.45;1.63;;;4.90;99.90;;;;;;5027914;28;20049;-78
2022/12/07 00:58:42;;;;;;;1.90;1.25;;;4.80;99.90;;;;;;5003529;28;20665;-77
2022/12/07 01:01:09;;;;;;;4.05;1.95;;;5.30;99.90;;;;;;5008524;28;20541;-77
2022/12/07 01:03:36;;;;;;;4.68;2.10;;;4.90;99.90;;;;;;5013881;28;20548;-77
2022/12/07 01:06:02;;;;;;;4.85;2.17;;;5.20;99.90;;;;;;5016442;28;20135;-76
2022/12/07 01:08:29;;;;;;;3.72;1.77;;;4.80;99.90;;;;;;5016889;28;20076;-77
2022/12/07 01:11:17;;;;;;;4.95;1.98;;;4.70;99.90;;;;;;5014778;28;20049;-78
2022/12/07 01:13:43;;;;;;;10.30;2.38;;;4.70;99.90;;;;;;5014822;28;20071;-78
2022/12/07 01:16:13;;;;;;;5.60;2.00;;;4.70;99.90;;;;;;5023655;28;20103;-77
2022/12/07 01:18:39;;;;;;;3.17;1.80;;;4.80;99.90;;;;;;5016049;28;20045;-78
2022/12/07 01:21:07;;;;;;;9.55;1.80;;;4.80;99.90;;;;;;5016958;28;20053;-77
2022/12/07 01:23:35;;;;;;;4.50;1.80;;;5.00;99.90;;;;;;5005539;28;20041;-78
2022/12/07 01:26:05;;;;;;;5.28;1.98;;;4.80;99.90;;;;;;5008260;28;20136;-77
2022/12/07 01:28:31;;;;;;;4.00;1.80;;;4.90;99.90;;;;;;5020566;28;20115;-78
2022/12/07 01:31:03;;;;;;;7.38;1.60;;;4.90;99.90;;;;;;5005826;28;20058;-77
2022/12/07 01:33:31;;;;;;;3.10;1.80;;;4.90;99.90;;;;;;5006039;28;20045;-77
2022/12/07 01:36:12;;;;;;;8.48;1.80;;;5.00;99.90;;;;;;5015959;28;20103;-76
2022/12/07 01:38:38;;;;;;;4.13;1.80;;;4.80;99.90;;;;;;5020200;28;20045;-77
2022/12/07 01:41:04;;;;;;;4.93;2.15;;;4.80;99.90;;;;;;5018307;28;20059;-77
2022/12/07 01:43:32;;;;;;;3.35;1.60;;;4.80;99.90;;;;;;5015736;28;20037;-77
2022/12/07 01:45:58;;;;;;;2.85;1.40;;;4.70;99.90;;;;;;5017719;28;20045;-77
2022/12/07 01:48:38;;;;;;;4.50;1.60;;;4.70;99.90;;;;;;5017078;28;20050;-77
2022/12/07 01:51:09;;;;;;;3.38;1.40;;;5.30;99.90;;;;;;5017971;28;20045;-77
2022/12/07 01:53:38;;;;;;;4.28;1.73;;;5.00;99.90;;;;;;5021187;28;20068;-77
2022/12/07 01:56:07;;;;;;;6.68;1.85;;;4.80;99.90;;;;;;5013653;28;20509;-79
2022/12/07 01:58:33;;;;;;;2.88;1.50;;;4.80;99.90;;;;;;5020557;28;20049;-77
2022/12/07 02:00:59;;;;;;;5.05;1.20;;;4.90;99.90;;;;;;5021941;28;20043;-77
2022/12/07 02:03:36;;;;;;;3.55;2.20;;;4.90;99.90;;;;;;5017292;28;20580;-78
2022/12/07 02:06:02;;;;;;;5.78;2.05;;;5.00;99.90;;;;;;5020801;28;20057;-77
2022/12/07 02:08:28;;;;;;;6.03;1.70;;;5.00;99.90;;;;;;5018397;28;20498;-77
2022/12/07 02:10:54;;;;;;;4.93;1.45;;;5.00;99.90;;;;;;5013539;28;20060;-77
2022/12/07 02:13:26;;;;;;;3.33;1.65;;;5.20;99.90;;;;;;5000782;28;20083;-76
2022/12/07 02:16:10;;;;;;;2.17;1.10;;;5.00;99.90;;;;;;5017009;28;20053;-77
2022/12/07 02:18:54;;;;;;;4.45;1.30;;;5.50;99.90;;;;;;5018902;28;20049;-77
2022/12/07 02:21:36;;;;;;;4.05;1.30;;;5.00;99.90;;;;;;5016656;28;20057;-77
2022/12/07 02:24:23;;;;;;;3.22;1.30;;;5.00;99.90;;;;;;5014853;28;20049;-77
2022/12/07 02:27:09;;;;;;;7.43;2.17;;;5.00;99.90;;;;;;5025571;28;20063;-77
2022/12/07 02:29:42;;;;;;;3.42;1.80;;;5.00;99.90;;;;;;5029438;28;20049;-76
2022/12/07 02:32:10;;;;;;;13.90;2.45;;;4.90;99.90;;;;;;5020635;28;20103;-76
2022/12/07 02:35:14;;;;;;;7.03;1.98;;;5.20;99.90;;;;;;5019455;28;20049;-76
2022/12/07 02:38:06;;;;;;;2.95;1.15;;;4.80;99.90;;;;;;4987821;28;20057;-76
2022/12/07 02:40:41;;;;;;;3.53;1.45;;;4.80;99.90;;;;;;5018426;28;20044;-77
2022/12/07 02:43:35;;;;;;;4.75;2.30;;;4.70;99.90;;;;;;5013353;28;20065;-77
2022/12/07 02:46:06;;;;;;;5.90;1.60;;;4.70;99.90;;;;;;4992982;28;20061;-77
2022/12/07 02:48:33;;;;;;;4.45;1.85;;;4.70;99.90;;;;;;5019600;28;20052;-76
2022/12/07 02:50:59;;;;;;;7.00;2.63;;;5.10;99.90;;;;;;5021843;28;20170;-77
2022/12/07 02:53:42;;;;;;;6.75;1.90;;;4.80;99.90;;;;;;5016741;28;20471;-77
2022/12/07 02:56:24;;;;;;;3.45;1.73;;;4.80;99.90;;;;;;5019927;28;20045;-77
2022/12/07 02:59:27;;;;;;;6.10;2.22;;;4.80;99.90;;;;;;5029919;28;20084;-76
2022/12/07 03:02:20;;;;;;;3.92;2.05;;;4.80;99.90;;;;;;5015882;28;20436;-77
2022/12/07 03:04:52;;;;;;;8.75;3.22;;;4.80;99.90;;;;;;5018622;28;20053;-77
2022/12/07 03:07:36;;;;;;;2.72;1.60;;;4.80;99.90;;;;;;5019416;28;20046;-77
2022/12/07 03:10:05;;;;;;;3.60;1.38;;;4.80;99.90;;;;;;5018836;28;20100;-77
2022/12/07 03:12:45;;;;;;;3.55;1.67;;;4.90;99.90;;;;;;5017839;28;20045;-77
2022/12/07 03:15:26;;;;;;;8.32;1.65;;;4.90;99.90;;;;;;5021565;28;20049;-76
2022/12/07 03:17:56;;;;;;;2.40;1.58;;;5.10;99.90;;;;;;5017137;28;20045;-77
2022/12/07 03:20:25;;;;;;;5.03;1.45;;;5.00;99.90;;;;;;5018925;28;20057;-78
2022/12/07 03:22:52;;;;;;;4.13;1.55;;;5.00;99.90;;;;;;5025213;28;20045;-77
2022/12/07 03:25:18;;;;;;;5.78;2.10;;;5.00;99.90;;;;;;5018139;28;20479;-77
2022/12/07 03:27:48;;;;;;;4.82;1.45;;;5.00;99.90;;;;;;5019040;28;20073;-77
2022/12/07 03:30:27;;;;;;;2.83;1.15;;;4.90;99.90;;;;;;5018347;28;20502;-77
2022/12/07 03:33:02;;;;;;;2.50;1.30;;;4.90;99.90;;;;;;5022543;28;20045;-77
2022/12/07 03:35:42;;;;;;;4.80;1.50;;;5.00;99.90;;;;;;5018693;28;20049;-77
2022/12/07 03:38:38;;;;;;;5.47;1.33;;;4.90;99.90;;;;;;5023735;28;20065;-77
2022/12/07 03:41:14;;;;;;;4.45;1.73;;;4.90;99.90;;;;;;5011733;28;20057;-77
2022/12/07 03:43:41;;;;;;;4.45;1.10;;;5.00;99.90;;;;;;5017926;28;20041;-77
2022/12/07 03:46:12;;;;;;;3.53;1.00;;;5.00;99.90;;;;;;5023070;28;20053;-76
2022/12/07 03:48:55;;;;;;;7.18;1.98;;;5.10;99.90;;;;;;5010886;28;20406;-76
2022/12/07 03:51:37;;;;;;;3.50;1.25;;;5.10;99.90;;;;;;5015223;28;20049;-74
2022/12/07 03:54:37;;;;;;;2.53;1.10;;;5.10;99.90;;;;;;5016611;28;20064;-75
2022/12/07 03:57:04;;;;;;;4.18;1.40;;;5.10;99.90;;;;;;5012371;28;21199;-76
2022/12/07 03:59:30;;;;;;;3.45;1.27;;;5.50;99.90;;;;;;5021176;28;20048;-76
2022/12/07 04:02:02;;;;;;;4.22;1.38;;;5.10;99.90;;;;;;5023135;28;20055;-75
2022/12/07 04:04:28;;;;;;;5.90;1.35;;;5.20;99.90;;;;;;5016575;28;20052;-77
2022/12/07 04:06:54;;;;;;;3.78;1.10;;;5.10;99.90;;;;;;5017911;28;20155;-76
2022/12/07 04:09:20;;;;;;;2.85;1.10;;;5.10;99.90;;;;;;5027704;28;20049;-77
2022/12/07 04:11:45;;;;;;;7.55;1.13;;;5.50;99.90;;;;;;5007906;28;20042;-76
2022/12/07 04:14:20;;;;;;;2.53;1.13;;;5.10;99.90;;;;;;5016048;28;20083;-77
2022/12/07 04:16:52;;;;;;;2.65;1.23;;;5.10;99.90;;;;;;5017699;28;20045;-77
2022/12/07 04:19:20;;;;;;;6.80;1.38;;;5.10;99.90;;;;;;5021469;28;20083;-76
2022/12/07 04:21:46;;;;;;;4.00;1.40;;;5.00;99.90;;;;;;5017909;28;20818;-77
2022/12/07 04:24:13;;;;;;;1.48;0.95;;;4.90;99.90;;;;;;5014813;28;20045;-77
2022/12/07 04:26:39;;;;;;;3.63;1.25;;;4.90;99.90;;;;;;5021660;28;20138;-77
2022/12/07 04:29:04;;;;;;;2.05;1.15;;;4.90;99.90;;;;;;5019320;28;20048;-77
2022/12/07 04:31:30;;;;;;;2.75;1.45;;;5.40;99.90;;;;;;5018589;28;20095;-77
2022/12/07 04:33:56;;;;;;;3.92;1.50;;;5.20;99.90;;;;;;5014315;28;20535;-77
2022/12/07 04:36:22;;;;;;;5.57;1.50;;;4.70;99.90;;;;;;5018248;28;20037;-77
2022/12/07 04:38:47;;;;;;;6.60;1.85;;;4.70;99.90;;;;;;5017779;28;20345;-76
2022/12/07 04:41:13;;;;;;;2.97;1.40;;;4.70;99.90;;;;;;5017733;28;20049;-78
2022/12/07 04:43:39;;;;;;;2.67;1.75;;;4.60;99.90;;;;;;5018812;28;20126;-78
2022/12/07 04:46:04;;;;;;;4.35;1.55;;;4.60;99.90;;;;;;5018184;28;20045;-77
2022/12/07 04:48:30;;;;;;;3.95;1.58;;;4.60;99.90;;;;;;5017910;28;20045;-77
2022/12/07 04:50:56;;;;;;;6.03;1.27;;;4.90;99.90;;;;;;5018032;28;20823;-77
2022/12/07 04:53:22;;;;;;;7.03;1.85;;;4.50;99.90;;;;;;5017146;28;20120;-77
2022/12/07 04:55:48;;;;;;;4.45;2.08;;;4.50;99.90;;;;;;5017904;28;20378;-76
2022/12/07 04:58:14;;;;;;;9.35;2.13;;;4.70;99.90;;;;;;5017671;28;20061;-77
2022/12/07 05:00:40;;;;;;;5.90;2.22;;;5.10;99.90;;;;;;5017918;28;20157;-76
2022/12/07 05:03:06;;;;;;;9.57;2.40;;;4.50;99.90;;;;;;5017787;28;20052;-77
2022/12/07 05:05:32;;;;;;;6.63;2.58;;;4.60;99.90;;;;;;5020367;28;20752;-77
2022/12/07 05:07:57;;;;;;;5.03;1.70;;;4.60;99.90;;;;;;5018041;28;20337;-77
2022/12/07 05:10:23;;;;;;;3.90;1.60;;;5.00;99.90;;;;;;5007312;28;20057;-77
2022/12/07 05:12:49;;;;;;;6.25;2.83;;;4.70;99.90;;;;;;5013992;28;20048;-77
2022/12/07 05:15:15;;;;;;;10.38;2.17;;;4.70;99.90;;;;;;5016976;28;20051;-78
2022/12/07 05:17:41;;;;;;;6.80;1.98;;;4.60;99.90;;;;;;5017088;28;20045;-78
2022/12/07 05:20:08;;;;;;;2.85;1.45;;;4.90;99.90;;;;;;5016974;28;20110;-76
2022/12/07 05:22:34;;;;;;;5.85;1.73;;;4.50;99.90;;;;;;5016672;28;20124;-76
2022/12/07 05:25:00;;;;;;;3.92;1.40;;;4.50;99.90;;;;;;5023987;28;20040;-77
2022/12/07 05:27:26;;;;;;;4.05;1.80;;;4.40;99.90;;;;;;5039034;28;20045;-77
2022/12/07 05:29:51;;;;;;;6.60;1.70;;;4.40;99.90;;;;;;5021527;28;20109;-76
2022/12/07 05:32:18;;;;;;;5.47;1.83;;;4.30;99.90;;;;;;5021278;28;20863;-77
2022/12/07 05:34:43;;;;;;;2.10;1.20;;;4.30;99.90;;;;;;5021628;28;20085;-76
2022/12/07 05:37:09;;;;;;;2.90;1.45;;;4.80;99.90;;;;;;5019032;28;20137;-77
2022/12/07 05:39:35;;;;;;;5.90;1.50;;;4.40;99.90;;;;;;5018783;28;20597;-77
2022/12/07 05:42:13;;;;;;;3.40;1.98;;;4.80;99.90;;;;;;5020389;28;20163;-77
2022/12/07 05:44:43;;;;;;;2.85;1.55;;;4.50;99.90;;;;;;5021237;28;20049;-77
2022/12/07 05:47:10;;;;;;;5.85;2.08;;;4.00;99.90;;;;;;5014251;28;20049;-81
2022/12/07 05:49:35;;;;;;;2.83;2.25;;;4.00;99.90;;;;;;5022067;28;20045;-77
2022/12/07 05:52:01;;;;;;;4.38;1.58;;;4.10;99.90;;;;;;5032485;28;20767;-77
2022/12/07 05:54:27;;;;;;;7.00;1.75;;;3.90;99.90;;;;;;5014899;28;20046;-76
2022/12/07 05:56:53;;;;;;;5.10;1.63;;;3.90;99.90;;;;;;5015363;28;20107;-78
2022/12/07 05:59:26;;;;;;;3.30;1.52;;;3.90;99.90;;;;;;5018502;28;20498;-77
2022/12/07 06:01:53;;;;;;;;;;;3.90;99.90;;;;;;5015776;28;20061;-76
2022/12/07 06:04:19;;;;;;;4.95;1.42;;;3.80;99.90;;;;;;5022348;28;19948;-77
2022/12/07 06:06:45;;;;;;;2.50;1.45;;;4.10;99.90;;;;;;5020498;28;20806;-77
2022/12/07 06:09:12;;;;;;;8.20;2.10;;;3.80;99.90;;;;;;5027934;28;20045;-79
2022/12/07 06:14:23;;;;;;;2.78;1.80;;;4.20;99.90;;;;;;5025968;28;20045;-78
2022/12/07 06:16:48;;;;;;;6.72;2.15;;;3.80;99.90;;;;;;5020951;28;20052;-77
2022/12/07 06:19:14;;;;;;;7.03;1.35;;;3.80;99.90;;;;;;5022194;28;20052;-79
2022/12/07 06:21:40;;;;;;;4.10;1.60;;;3.70;99.90;;;;;;5020203;28;20795;-78
2022/12/07 06:24:06;;;;;;;7.85;1.95;;;3.90;99.90;;;;;;5019634;28;20049;-77
2022/12/07 06:26:32;;;;;;;3.83;1.95;;;3.70;99.90;;;;;;5021572;28;20184;-77
2022/12/07 06:28:57;;;;;;;6.72;2.10;;;4.20;99.90;;;;;;5017358;28;20823;-78
2022/12/07 06:31:23;;;;;;;3.65;1.73;;;3.60;99.90;;;;;;5014317;28;20053;-77
2022/12/07 06:33:49;;;;;;;5.32;2.13;;;3.70;99.90;;;;;;5020331;28;20131;-78
2022/12/07 06:36:15;;;;;;;11.02;2.67;;;3.70;99.90;;;;;;5018675;28;20756;-78
2022/12/07 06:38:40;;;;;;;6.13;2.40;;;3.80;99.90;;;;;;5016507;28;20045;-77
2022/12/07 06:41:06;;;;;;;6.72;2.42;;;3.90;99.90;;;;;;5020040;28;20044;-78
2022/12/07 06:43:32;;;;;;;3.50;1.92;;;4.70;99.90;;;;;;5017811;28;20787;-77
2022/12/07 06:45:58;;;;;;;10.45;2.63;;;4.00;99.90;;;;;;5015934;28;20526;-77
2022/12/07 06:48:24;;;;;;;6.30;2.17;;;4.10;99.90;;;;;;5020322;28;20107;-76
2022/12/07 06:50:49;;;;;;;3.25;2.05;;;4.00;99.90;;;;;;5014405;28;20529;-78
2022/12/07 06:53:15;;;;;;;4.78;2.08;;;4.10;99.90;;;;;;5018991;28;20497;-79
2022/12/07 06:55:41;;;;;;;5.00;2.53;;;4.00;99.90;;;;;;5018825;28;20049;-78
2022/12/07 06:58:06;;;;;;;9.45;2.40;;;4.30;99.90;;;;;;5018845;28;20180;-79
2022/12/07 07:00:34;;;;;;;4.65;2.10;;;4.00;99.90;;;;;;5018887;28;20065;-78
2022/12/07 07:03:00;;;;;;;8.20;2.63;;;4.00;99.90;;;;;;5018950;28;20045;-78
2022/12/07 07:05:25;;;;;;;5.30;1.75;;;4.00;99.90;;;;;;5020307;28;20482;-78
2022/12/07 07:07:51;;;;;;;4.55;1.88;;;3.90;99.90;;;;;;5023737;28;20048;-78
2022/12/07 07:10:17;;;;;;;2.92;1.80;;;3.90;99.90;;;;;;5021597;28;20148;-78
2022/12/07 07:12:42;;;;;;;9.27;1.95;;;3.90;99.90;;;;;;5019608;28;20045;-79
2022/12/07 07:15:09;;;;;;;4.20;2.00;;;3.80;99.90;;;;;;5019799;28;20490;-78
2022/12/07 07:17:35;;;;;;;6.35;1.50;;;3.80;99.90;;;;;;5023031;28;20060;-78
2022/12/07 07:20:00;;;;;;;2.38;1.75;;;3.70;99.90;;;;;;5026576;28;20045;-78
2022/12/07 07:22:26;;;;;;;4.38;1.80;;;3.70;99.90;;;;;;5019101;28;20038;-78
2022/12/07 07:24:52;;;;;;;3.80;1.95;;;3.70;99.90;;;;;;5017817;28;20500;-77
2022/12/07 07:27:17;;;;;;;5.22;1.70;;;3.80;99.90;;;;;;5018700;28;20045;-76
2022/12/07 07:29:43;;;;;;;5.57;2.33;;;3.80;99.90;;;;;;5018226;28;20151;-78
2022/12/07 07:32:09;;;;;;;5.88;1.85;;;3.90;99.90;;;;;;5023355;28;20506;-76
2022/12/07 07:34:34;;;;;;;3.30;1.77;;;4.00;99.90;;;;;;5013515;28;20174;-72
2022/12/07 07:37:00;;;;;;;6.45;1.80;;;4.20;99.90;;;;;;5016880;28;20053;-74
2022/12/07 07:39:26;;;;;;;5.35;1.70;;;4.10;99.90;;;;;;5015242;28;20167;-74
2022/12/07 07:41:51;;;;;;;6.00;1.83;;;4.20;99.90;;;;;;5011612;28;20666;-74
2022/12/07 07:44:17;;;;;;;3.40;1.95;;;4.20;99.90;;;;;;5015596;28;20157;-75
2022/12/07 07:46:43;;;;;;;2.03;1.70;;;4.20;99.90;;;;;;5022842;28;20075;-76
2022/12/07 07:49:10;;;;;;;4.05;1.63;;;4.20;99.90;;;;;;5019055;28;20744;-76
2022/12/07 07:51:36;;;;;;;6.22;1.65;;;4.20;99.90;;;;;;5010457;28;20143;-77
2022/12/07 07:54:02;;;;;;;7.32;1.70;;;4.20;99.90;;;;;;5014352;28;20041;-77
2022/12/07 07:56:28;;;;;;;2.22;1.48;;;4.20;99.90;;;;;;4998905;28;20068;-77
2022/12/07 07:58:54;;;;;;;5.80;1.80;;;4.20;99.90;;;;;;5024624;28;20076;-77
2022/12/07 08:01:20;;;;;;;2.53;1.83;;;4.20;99.90;;;;;;5010291;28;20060;-77
2022/12/07 08:03:48;;;;;;;1.75;1.38;;;4.70;99.90;;;;;;5022828;28;20477;-80
2022/12/07 08:06:14;;;;;;;3.70;2.15;;;4.20;99.90;;;;;;5015594;28;20901;-79
2022/12/07 08:08:40;;;;;;;2.97;1.80;;;4.10;99.90;;;;;;5016926;28;20045;-79
2022/12/07 08:11:06;;;;;;;3.17;1.38;;;4.10;99.90;;;;;;5017572;28;20597;-79
2022/12/07 08:13:32;;;;;;;4.43;1.75;;;4.10;99.90;;;;;;5016850;28;20148;-79
2022/12/07 08:16:02;;;;;;;2.63;1.45;;;4.80;99.90;;;;;;5014717;28;20041;-79
2022/12/07 08:18:28;;;;;;;5.53;1.50;;;4.00;99.90;;;;;;5018929;28;20072;-78
2022/12/07 08:21:00;;;;;;;3.17;1.35;;;5.00;99.90;;;;;;5014310;28;20152;-78
2022/12/07 08:23:26;;;;;;;3.17;1.67;;;4.00;99.90;;;;;;5014310;28;20041;-79
2022/12/07 08:25:52;;;;;;;4.45;1.95;;;4.00;99.90;;;;;;5026667;28;20125;-79
2022/12/07 08:28:18;;;;;;;6.30;1.80;;;4.00;99.90;;;;;;5010509;28;20057;-80
2022/12/07 08:32:25;;;;;;;4.13;1.58;;;4.00;99.90;;;;;;5064676;27;20522;-78
2022/12/07 08:34:52;;;;;;;6.72;1.70;;;5.30;99.90;;;;;;5065087;28;20163;-78
2022/12/07 08:37:18;;;;;;;2.38;1.35;;;5.00;99.90;;;;;;5066016;28;20121;-81
2022/12/07 08:39:43;;;;;;;6.55;1.90;;;4.00;99.90;;;;;;5059674;28;20191;-77
2022/12/07 08:42:09;;;;;;;8.82;2.10;;;4.00;99.90;;;;;;5066155;28;20079;-78
2022/12/07 08:44:35;;;;;;;3.63;2.42;;;4.70;99.90;;;;;;5067464;28;20052;-78
2022/12/07 08:47:05;;;;;;;6.90;2.05;;;4.10;99.90;;;;;;5061072;28;20572;-78
2022/12/07 08:49:46;;;;;;;5.70;2.65;;;4.10;99.90;;;;;;5063185;28;20059;-79
2022/12/07 08:52:12;;;;;;;5.78;2.42;;;4.10;99.90;;;;;;5059497;28;20127;-80
2022/12/07 08:54:39;;;;;;;5.88;1.80;;;4.10;99.90;;;;;;5059543;28;20049;-78
2022/12/07 08:57:06;;;;;;;8.30;2.05;;;4.10;99.90;;;;;;5064625;28;20055;-77
2022/12/07 08:59:34;;;;;;;7.00;2.67;;;4.10;99.90;;;;;;5063644;28;20052;-78
2022/12/07 09:02:00;;;;;;;4.72;2.63;;;4.20;99.90;;;;;;5063460;28;20045;-77
2022/12/07 09:04:26;;;;;;;6.55;2.70;;;4.30;99.90;;;;;;5065476;28;20055;-78
2022/12/07 09:06:53;;;;;;;6.72;2.72;;;4.40;99.90;;;;;;5066037;28;20776;-77
2022/12/07 09:09:19;;;;;;;4.55;1.95;;;4.30;99.90;;;;;;5066157;28;20497;-76
2022/12/07 09:11:45;;;;;;;5.53;2.20;;;4.90;99.90;;;;;;5065642;28;20094;-77
2022/12/07 09:14:12;;;;;;;5.25;2.60;;;5.00;99.90;;;;;;5055382;28;20049;-77
2022/12/07 09:16:37;;;;;;;6.28;2.50;;;4.40;99.90;;;;;;5059441;28;20148;-77
2022/12/07 09:19:03;;;;;;;5.55;2.20;;;4.40;99.90;;;;;;5071090;28;20048;-76
2022/12/07 09:21:30;;;;;;;6.78;2.63;;;4.50;99.90;;;;;;5067141;28;20044;-76
2022/12/07 09:23:55;;;;;;;5.65;2.20;;;4.50;99.90;;;;;;5061061;28;20157;-77
2022/12/07 09:26:21;;;;;;;6.40;2.40;;;5.30;99.90;;;;;;5062386;28;20128;-77
2022/12/07 09:28:47;;;;;;;7.22;2.67;;;4.80;99.90;;;;;;5073768;28;20052;-77
2022/12/07 09:31:13;;;;;;;5.43;2.08;;;5.00;99.90;;;;;;5053998;28;20048;-77
2022/12/07 09:33:38;;;;;;;10.18;2.60;;;5.10;99.90;;;;;;5066846;28;20048;-77
2022/12/07 09:36:05;;;;;;;3.00;2.17;;;5.20;99.90;;;;;;5073496;28;20227;-77
2022/12/07 09:38:32;;;;;;;7.35;2.67;;;5.20;99.90;;;;;;5073392;28;20036;-77
2022/12/07 09:41:05;;;;;;;10.90;2.95;;;5.40;99.90;;;;;;5067268;28;20057;-77
2022/12/07 09:43:30;;;;;;;5.15;2.65;;;5.50;99.90;;;;;;5051161;28;20045;-78
2022/12/07 09:45:56;;;;;;;9.07;3.60;;;5.70;99.90;;;;;;5046002;28;20114;-77
2022/12/07 09:48:36;;;;;;;6.38;2.33;;;6.20;99.90;;;;;;5049819;28;20084;-78
2022/12/07 09:51:13;;;;;;;5.10;2.60;;;5.60;99.90;;;;;;5042970;28;20049;-77
2022/12/07 09:53:39;;;;;;;6.57;2.33;;;5.60;99.90;;;;;;5046386;28;20055;-77
2022/12/07 09:56:05;;;;;;;8.80;3.67;;;5.60;99.90;;;;;;5048707;28;20079;-77
2022/12/07 09:58:33;;;;;;;3.38;2.13;;;5.60;99.90;;;;;;5051518;28;20776;-77
2022/12/07 10:01:10;;;;;;;5.45;2.20;;;5.60;99.90;;;;;;5044985;28;20045;-77
2022/12/07 10:03:38;;;;;;;7.05;2.63;;;5.60;99.90;;;;;;5052245;28;20045;-77
2022/12/07 10:06:05;;;;;;;3.38;2.30;;;5.60;99.90;;;;;;5039132;28;21289;-77
2022/12/07 10:08:31;;;;;;;7.50;2.55;;;5.60;99.90;;;;;;5046716;28;20147;-77
2022/12/07 10:10:57;;;;;;;4.85;2.08;;;5.60;99.90;;;;;;5039083;28;20564;-77
2022/12/07 10:13:36;;;;;;;8.57;2.20;;;5.60;99.90;;;;;;5040591;28;20056;-77
2022/12/07 10:16:02;;;;;;;2.95;2.15;;;6.00;99.90;;;;;;5051540;28;20560;-77
2022/12/07 10:18:37;;;;;;;11.07;2.42;;;5.70;99.90;;;;;;5059331;28;20121;-77
2022/12/07 10:21:12;;;;;;;4.03;2.28;;;5.70;99.90;;;;;;5058359;28;20925;-77
2022/12/07 10:23:40;;;;;;;6.65;1.92;;;5.70;99.90;;;;;;5059109;28;20058;-77
2022/12/07 10:26:31;;;;;;;4.97;2.00;;;6.10;99.90;;;;;;5052294;28;20106;-77
2022/12/07 10:29:01;;;;;;;4.53;1.60;;;5.70;99.90;;;;;;5047925;28;20080;-77
2022/12/07 10:31:28;;;;;;;4.97;2.08;;;5.70;99.90;;;;;;5071800;28;20842;-77
2022/12/07 10:33:58;;;;;;;3.53;2.20;;;5.80;99.90;;;;;;5046245;28;20068;-77
2022/12/07 10:36:26;;;;;;;4.63;3.08;;;5.80;99.90;;;;;;5051428;28;20052;-77
2022/12/07 10:39:03;;;;;;;6.22;1.90;;;5.90;99.90;;;;;;5043850;28;20052;-77
2022/12/07 10:41:29;;;;;;;5.68;1.52;;;5.90;99.90;;;;;;5052086;28;20044;-77
2022/12/07 10:43:56;;;;;;;3.20;1.60;;;6.00;99.90;;;;;;5050705;28;20040;-77
2022/12/07 10:46:29;;;;;;;4.35;2.17;;;6.10;99.90;;;;;;5048601;28;20107;-77
2022/12/07 10:49:11;;;;;;;6.43;1.73;;;6.20;99.90;;;;;;5040980;28;20048;-77
2022/12/07 10:51:44;;;;;;;3.80;2.25;;;6.20;99.90;;;;;;5041023;28;20053;-77
2022/12/07 10:54:21;;;;;;;4.85;2.13;;;6.20;99.90;;;;;;5051114;28;20052;-77
2022/12/07 10:56:55;;;;;;;4.30;1.55;;;6.30;99.90;;;;;;5042306;28;20132;-77
2022/12/07 10:59:39;;;;;;;2.42;1.42;;;6.40;99.90;;;;;;5052441;28;20052;-77
2022/12/07 11:02:10;;;;;;;3.42;2.45;;;6.50;99.90;;;;;;5048930;28;20079;-77
2022/12/07 11:04:55;;;;;;;3.80;1.70;;;6.60;99.90;;;;;;5040097;28;20170;-79
2022/12/07 11:07:41;;;;;;;3.60;1.70;;;6.60;99.90;;;;;;5048964;28;20131;-76
2022/12/07 11:10:10;;;;;;;7.40;2.83;;;6.60;99.90;;;;;;5040636;28;20111;-82
2022/12/07 11:12:42;;;;;;;4.55;1.80;;;6.60;99.90;;;;;;5074030;28;20382;-77
2022/12/07 11:15:08;;;;;;;3.43;1.70;;;6.60;99.90;;;;;;5046504;28;20053;-77
2022/12/07 11:17:39;;;;;;;6.35;2.20;;;6.60;99.90;;;;;;5043574;28;20309;-79
2022/12/07 11:20:29;;;;;;;4.82;1.90;;;6.50;99.90;;;;;;5043091;28;20049;-77
2022/12/07 11:23:04;;;;;;;2.83;1.92;;;6.50;99.90;;;;;;5041594;28;20560;-77
2022/12/07 11:25:58;;;;;;;6.80;2.00;;;6.60;99.90;;;;;;5043291;28;20045;-77
2022/12/07 11:28:24;;;;;;;5.75;2.25;;;6.40;99.90;;;;;;5035333;28;20063;-78
2022/12/07 11:31:05;;;;;;;4.22;1.70;;;6.40;99.90;;;;;;5036008;28;20049;-75
2022/12/07 11:34:08;;;;;;;6.95;2.05;;;6.10;99.90;;;;;;5040726;28;20057;-74
2022/12/07 11:37:09;;;;;;;5.55;1.40;;;5.90;99.90;;;;;;5040688;28;20088;-75
2022/12/07 11:39:50;;;;;;;1.50;1.20;;;5.70;99.90;;;;;;5039088;28;20100;-74
2022/12/07 11:42:30;;;;;;;2.35;1.00;;;5.70;99.90;;;;;;5040404;28;20124;-75
2022/12/07 11:45:01;;;;;;;1.52;1.42;;;5.70;99.90;;;;;;5043543;28;20119;-76
2022/12/07 11:47:54;;;;;;;2.83;1.40;;;5.70;99.90;;;;;;5042531;28;20520;-76
2022/12/07 11:50:42;;;;;;;2.67;1.08;;;5.80;99.90;;;;;;5045174;28;20052;-76
2022/12/07 11:53:07;;;;;;;3.55;0.90;;;5.90;99.90;;;;;;5039781;28;20045;-76
2022/12/07 11:55:39;;;;;;;2.28;0.90;;;6.00;99.90;;;;;;5039798;28;20049;-75
2022/12/07 11:58:37;;;;;;;6.45;1.25;;;6.00;99.90;;;;;;5041768;28;20041;-75
2022/12/07 12:01:16;;;;;;;1.55;0.98;;;6.00;99.90;;;;;;5043194;28;20485;-75
2022/12/07 12:03:53;;;;;;;2.97;0.93;;;6.00;99.90;;;;;;5046207;28;20097;-76
2022/12/07 12:06:19;;;;;;;3.13;1.30;;;6.10;99.90;;;;;;5044264;28;20147;-77
2022/12/07 12:09:00;;;;;;;3.92;1.45;;;6.10;99.90;;;;;;5044025;28;20053;-76
2022/12/07 12:11:25;;;;;;;2.10;1.00;;;6.30;99.90;;;;;;5044529;28;20060;-76
2022/12/07 12:14:05;;;;;;;4.68;1.30;;;6.10;99.90;;;;;;5047349;28;20528;-77
2022/12/07 12:16:31;;;;;;;2.08;1.02;;;6.40;99.90;;;;;;5044163;28;20097;-75
2022/12/07 12:18:57;;;;;;;4.38;1.45;;;6.40;99.90;;;;;;5040786;28;20045;-76
2022/12/07 12:21:28;;;;;;;3.50;1.20;;;6.40;99.90;;;;;;5044096;28;20576;-76
2022/12/07 12:24:03;;;;;;;4.05;1.40;;;6.80;99.90;;;;;;5043600;28;20075;-76
2022/12/07 12:26:32;;;;;;;8.73;1.50;;;6.50;99.90;;;;;;5040463;28;20078;-76
2022/12/07 12:29:01;;;;;;;4.85;1.35;;;6.80;99.90;;;;;;5041280;28;20119;-76
2022/12/07 12:31:30;;;;;;;2.45;1.02;;;6.50;99.90;;;;;;5047031;28;20048;-77
2022/12/07 12:33:58;;;;;;;4.60;1.60;;;6.50;99.90;;;;;;5043888;28;20279;-78
2022/12/07 12:36:44;;;;;;;6.45;2.85;;;6.40;99.90;;;;;;5081022;28;21338;-78
2022/12/07 12:39:18;;;;;;;4.05;1.33;;;6.30;99.90;;;;;;5044483;28;20044;-79
2022/12/07 12:44:18;;;;;;;2.33;1.30;;;6.20;99.90;;;;;;5046718;28;21250;-77
2022/12/07 12:46:53;;;;;;;2.88;1.35;;;6.20;99.90;;;;;;5043534;28;20393;-77
2022/12/07 12:49:21;;;;;;;1.50;1.40;;;6.20;99.90;;;;;;5042575;28;20054;-77
2022/12/07 12:51:54;;;;;;;4.55;1.77;;;6.20;99.90;;;;;;5047341;28;20059;-76
2022/12/07 12:54:25;;;;;;;1.50;1.40;;;6.10;99.90;;;;;;5044201;28;20044;-76
2022/12/07 12:57:15;;;;;;;5.00;1.98;;;6.20;99.90;;;;;;5042985;28;20049;-76
2022/12/07 12:59:53;;;;;;;3.45;1.40;;;6.20;99.90;;;;;;5041455;28;20058;-76
2022/12/07 13:02:48;;;;;;;4.35;1.70;;;6.20;99.90;;;;;;5038600;28;20075;-77
2022/12/07 13:05:13;;;;;;;1.63;1.30;;;6.30;99.90;;;;;;5041515;28;20057;-77
2022/12/07 13:07:51;;;;;;;7.78;1.25;;;6.30;99.90;;;;;;5048257;28;20102;-77
2022/12/07 13:10:29;;;;;;;4.72;1.38;;;6.40;99.90;;;;;;5048476;28;20285;-77
2022/12/07 13:13:13;;;;;;;2.50;1.58;;;6.40;99.90;;;;;;5052025;28;20057;-78
2022/12/07 13:16:08;;;;;;;3.22;1.50;;;6.40;99.90;;;;;;5050137;28;20048;-77
2022/12/07 13:18:33;;;;;;;6.80;1.48;;;6.40;99.90;;;;;;5054175;28;20690;-78
2022/12/07 13:21:07;;;;;;;4.82;1.40;;;7.00;99.90;;;;;;5045155;28;20040;-76
2022/12/07 13:23:45;;;;;;;3.05;1.10;;;6.40;99.90;;;;;;5050653;28;20052;-77